Time;durP1;ratioP1;P1;durP2;ratioP2;P2;SDS_P1;SDS_P2;PMS_P1;PMS_P2;Temp;Humidity;BMP_temperature;BMP_pressure;BME280_temperature;BME280_humidity;BME280_pressure;Samples;Min_cycle;Max_cycle;Signal;HPM_P1;HPM_P2
2023/09/26 00:01:32;;;;;;;8.45;2.42;;;16.10;99.90;;;;;;4935831;28;20039;-70
2023/09/26 00:03:57;;;;;;;7.70;2.88;;;16.10;99.90;;;;;;4929029;28;20035;-69
2023/09/26 00:06:24;;;;;;;3.30;2.70;;;16.20;99.90;;;;;;4932447;28;20147;-69
2023/09/26 00:08:52;;;;;;;4.45;2.65;;;16.10;99.90;;;;;;4933225;28;20062;-69
2023/09/26 00:11:19;;;;;;;2.13;1.92;;;16.10;99.90;;;;;;4913755;29;20043;-69
2023/09/26 00:13:45;;;;;;;2.85;2.20;;;16.10;99.90;;;;;;4928688;28;20138;-70
2023/09/26 00:16:11;;;;;;;7.40;3.03;;;16.10;99.90;;;;;;4924751;28;20043;-70
2023/09/26 00:18:40;;;;;;;6.20;2.60;;;16.10;99.90;;;;;;4924527;28;20055;-70
2023/09/26 00:21:07;;;;;;;5.22;2.55;;;16.10;99.90;;;;;;4929762;28;20090;-70
2023/09/26 00:23:33;;;;;;;4.22;3.08;;;16.00;99.90;;;;;;4929900;28;20035;-70
2023/09/26 00:25:58;;;;;;;5.75;2.83;;;15.90;99.90;;;;;;4928588;28;20074;-70
2023/09/26 00:28:24;;;;;;;5.00;2.83;;;15.80;99.90;;;;;;4929823;28;20475;-70
2023/09/26 00:30:50;;;;;;;6.57;2.95;;;15.80;99.90;;;;;;4928818;28;20046;-70
2023/09/26 00:33:15;;;;;;;5.72;2.88;;;15.80;99.90;;;;;;4929950;28;20058;-70
2023/09/26 00:35:41;;;;;;;5.80;3.28;;;15.70;99.90;;;;;;4928233;28;20043;-70
2023/09/26 00:38:07;;;;;;;4.80;2.50;;;15.70;99.90;;;;;;4927461;28;20059;-69
2023/09/26 00:40:33;;;;;;;3.38;3.08;;;15.80;99.90;;;;;;4930309;28;20053;-70
2023/09/26 00:45:43;;;;;;;3.50;3.20;;;15.80;99.90;;;;;;4926475;28;20503;-71
2023/09/26 00:48:09;;;;;;;4.40;2.55;;;15.80;99.90;;;;;;4925528;28;20051;-69
2023/09/26 00:50:35;;;;;;;5.43;2.53;;;15.80;99.90;;;;;;4927283;28;20702;-71
2023/09/26 00:53:00;;;;;;;4.63;2.10;;;15.80;99.90;;;;;;4929073;28;20043;-71
2023/09/26 00:55:26;;;;;;;5.45;2.55;;;15.80;99.90;;;;;;4929408;28;20047;-71
2023/09/26 00:57:54;;;;;;;7.78;2.80;;;15.80;99.90;;;;;;4931317;28;20027;-71
2023/09/26 01:00:20;;;;;;;4.47;2.38;;;15.90;99.90;;;;;;4926557;28;20134;-71
2023/09/26 01:02:46;;;;;;;4.95;3.22;;;15.80;99.90;;;;;;4928601;28;20031;-71
2023/09/26 01:05:11;;;;;;;5.72;2.83;;;15.70;99.90;;;;;;4926817;28;20039;-71
2023/09/26 01:07:39;;;;;;;4.05;2.80;;;15.50;99.90;;;;;;4926953;28;20126;-71
2023/09/26 01:10:08;;;;;;;6.00;3.00;;;15.50;99.90;;;;;;4931711;28;20108;-71
2023/09/26 01:12:34;;;;;;;3.78;2.20;;;15.40;99.90;;;;;;4930132;28;20043;-71
2023/09/26 01:15:00;;;;;;;4.38;2.70;;;15.50;99.90;;;;;;4926535;28;20043;-71
2023/09/26 01:17:30;;;;;;;4.28;1.92;;;15.40;99.90;;;;;;4930166;28;20046;-71
2023/09/26 01:19:55;;;;;;;7.88;2.30;;;15.40;99.90;;;;;;4920202;28;20143;-71
2023/09/26 01:22:24;;;;;;;3.72;2.20;;;15.50;99.90;;;;;;4915003;29;20046;-71
2023/09/26 01:24:51;;;;;;;2.65;2.03;;;15.50;99.90;;;;;;4914579;29;20040;-69
2023/09/26 01:27:17;;;;;;;2.33;1.95;;;15.50;99.90;;;;;;4914198;29;20036;-69
2023/09/26 01:29:43;;;;;;;1.73;1.63;;;15.60;99.90;;;;;;4917724;29;20067;-69
2023/09/26 01:32:08;;;;;;;4.40;2.58;;;15.50;99.90;;;;;;4914092;29;20372;-69
2023/09/26 01:34:34;;;;;;;3.22;1.73;;;15.50;99.90;;;;;;4918198;29;20055;-69
2023/09/26 01:36:59;;;;;;;3.08;2.33;;;15.50;99.90;;;;;;4918558;29;20485;-69
2023/09/26 01:39:25;;;;;;;3.65;2.25;;;15.40;99.90;;;;;;4916745;29;20438;-69
2023/09/26 01:41:51;;;;;;;4.45;1.85;;;15.40;99.90;;;;;;4917341;29;20078;-69
2023/09/26 01:44:16;;;;;;;3.17;1.92;;;15.40;99.90;;;;;;4912170;29;20143;-70
2023/09/26 01:46:42;;;;;;;2.33;2.08;;;15.30;99.90;;;;;;4917745;29;20103;-69
2023/09/26 01:49:08;;;;;;;7.20;1.95;;;15.40;99.90;;;;;;4916047;29;20266;-69
2023/09/26 01:51:34;;;;;;;2.05;1.95;;;15.40;99.90;;;;;;4918595;29;21065;-69
2023/09/26 01:53:59;;;;;;;4.80;1.95;;;15.40;99.90;;;;;;4917542;29;20131;-69
2023/09/26 01:56:25;;;;;;;4.07;1.50;;;15.40;99.90;;;;;;4918762;29;20168;-69
2023/09/26 01:58:50;;;;;;;3.15;1.80;;;15.40;99.90;;;;;;4911680;29;20040;-69
2023/09/26 02:01:17;;;;;;;5.78;2.47;;;15.40;99.90;;;;;;4917866;29;20497;-69
2023/09/26 02:03:42;;;;;;;8.77;2.67;;;15.40;99.90;;;;;;4913012;29;20055;-69
2023/09/26 02:06:08;;;;;;;6.07;2.90;;;15.30;99.90;;;;;;4915332;29;20048;-69
2023/09/26 02:08:34;;;;;;;8.77;3.20;;;15.20;99.90;;;;;;4915923;29;20083;-69
2023/09/26 02:10:59;;;;;;;12.05;2.85;;;15.20;99.90;;;;;;4917878;29;20055;-69
2023/09/26 02:13:25;;;;;;;6.60;2.70;;;15.20;99.90;;;;;;4918157;29;20035;-69
2023/09/26 02:15:51;;;;;;;8.18;2.78;;;15.20;99.90;;;;;;4913620;29;20042;-69
2023/09/26 02:18:17;;;;;;;7.15;2.17;;;15.20;99.90;;;;;;4919834;29;20044;-69
2023/09/26 02:20:42;;;;;;;4.97;2.50;;;15.30;99.90;;;;;;4917256;29;20070;-69
2023/09/26 02:23:08;;;;;;;2.53;2.17;;;15.20;99.90;;;;;;4910376;29;20584;-71
2023/09/26 02:25:34;;;;;;;3.22;2.00;;;15.30;99.90;;;;;;4916824;29;20062;-71
2023/09/26 02:28:00;;;;;;;3.50;2.13;;;15.30;99.90;;;;;;4917752;29;20040;-71
2023/09/26 02:30:28;;;;;;;3.30;2.00;;;15.30;99.90;;;;;;4912970;29;20568;-71
2023/09/26 02:32:54;;;;;;;2.38;2.17;;;15.40;99.90;;;;;;4919463;29;20031;-71
2023/09/26 02:35:20;;;;;;;2.55;1.75;;;15.40;99.90;;;;;;4914814;29;20043;-71
2023/09/26 02:37:46;;;;;;;2.97;2.00;;;15.40;99.90;;;;;;4915650;29;20059;-71
2023/09/26 02:40:13;;;;;;;2.60;1.77;;;15.40;99.90;;;;;;4915797;29;20469;-71
2023/09/26 02:42:40;;;;;;;2.03;1.73;;;15.40;99.90;;;;;;4916861;29;20052;-71
2023/09/26 02:45:07;;;;;;;3.17;1.52;;;15.40;99.90;;;;;;4915367;29;20039;-71
2023/09/26 02:47:33;;;;;;;2.50;2.10;;;15.40;99.90;;;;;;4913875;29;20053;-71
2023/09/26 02:49:59;;;;;;;7.93;2.25;;;15.40;99.90;;;;;;4918880;28;20122;-71
2023/09/26 02:52:25;;;;;;;8.63;2.45;;;15.40;99.90;;;;;;4935845;28;20041;-71
2023/09/26 02:54:51;;;;;;;10.57;2.35;;;15.50;99.90;;;;;;4928641;28;20086;-71
2023/09/26 02:57:18;;;;;;;6.78;2.40;;;15.50;99.90;;;;;;4934046;28;20142;-69
2023/09/26 02:59:44;;;;;;;8.98;2.53;;;15.50;99.90;;;;;;4931350;28;20459;-69
2023/09/26 03:02:10;;;;;;;4.20;2.70;;;15.50;99.90;;;;;;4935217;28;20504;-69
2023/09/26 03:04:36;;;;;;;6.93;2.42;;;15.50;99.90;;;;;;4931853;28;20219;-69
2023/09/26 03:07:01;;;;;;;5.28;2.58;;;15.50;99.90;;;;;;4929133;28;20051;-69
2023/09/26 03:09:28;;;;;;;7.88;2.63;;;15.40;99.90;;;;;;4930248;28;20035;-69
2023/09/26 03:11:53;;;;;;;5.43;2.63;;;15.40;99.90;;;;;;4931133;28;20035;-69
2023/09/26 03:14:20;;;;;;;4.03;2.78;;;15.40;99.90;;;;;;4935537;28;20094;-69
2023/09/26 03:16:45;;;;;;;2.80;2.45;;;15.50;99.90;;;;;;4930811;28;20117;-69
2023/09/26 03:19:11;;;;;;;5.72;2.78;;;15.40;99.90;;;;;;4926511;28;20042;-69
2023/09/26 03:21:37;;;;;;;5.35;2.65;;;15.50;99.90;;;;;;4935281;28;20074;-69
2023/09/26 03:24:03;;;;;;;6.20;2.50;;;15.50;99.90;;;;;;4936893;28;20134;-69
2023/09/26 03:26:29;;;;;;;7.78;3.13;;;15.50;99.90;;;;;;4935081;28;20051;-69
2023/09/26 03:28:54;;;;;;;5.43;2.60;;;15.50;99.90;;;;;;4933762;28;20591;-69
2023/09/26 03:31:20;;;;;;;5.07;2.90;;;15.50;99.90;;;;;;4935279;28;20036;-69
2023/09/26 03:33:46;;;;;;;4.70;2.80;;;15.50;99.90;;;;;;4938584;28;20516;-69
2023/09/26 03:36:11;;;;;;;5.95;2.92;;;15.50;99.90;;;;;;4933398;28;20469;-69
2023/09/26 03:38:37;;;;;;;8.52;2.95;;;15.60;99.90;;;;;;4932279;28;20036;-69
2023/09/26 03:41:04;;;;;;;6.13;3.13;;;15.60;99.90;;;;;;4936218;28;20098;-69
2023/09/26 03:43:31;;;;;;;5.15;2.80;;;15.60;99.90;;;;;;4935671;28;20039;-69
2023/09/26 03:46:07;;;;;;;3.08;2.17;;;15.60;99.90;;;;;;4932865;28;20047;-69
2023/09/26 03:48:34;;;;;;;6.03;2.75;;;15.60;99.90;;;;;;4935106;28;20591;-70
2023/09/26 03:51:10;;;;;;;3.42;2.30;;;15.70;99.90;;;;;;4934093;28;20049;-69
2023/09/26 03:53:37;;;;;;;4.65;2.28;;;15.70;99.90;;;;;;4939150;28;20039;-69
2023/09/26 03:56:03;;;;;;;6.28;3.03;;;15.60;99.90;;;;;;4932245;28;20528;-69
2023/09/26 03:58:29;;;;;;;6.30;2.85;;;15.60;99.90;;;;;;4937440;28;20051;-71
2023/09/26 04:00:54;;;;;;;6.05;3.10;;;15.50;99.90;;;;;;4927224;28;20576;-69
2023/09/26 04:03:20;;;;;;;7.05;3.85;;;15.50;99.90;;;;;;4937930;28;20043;-69
2023/09/26 04:05:48;;;;;;;5.18;3.88;;;15.60;99.90;;;;;;4934224;28;20101;-69
2023/09/26 04:08:16;;;;;;;5.45;3.00;;;15.70;99.90;;;;;;4933796;28;20046;-69
2023/09/26 04:10:42;;;;;;;6.15;2.72;;;15.70;99.90;;;;;;4929803;28;20050;-69
2023/09/26 04:13:08;;;;;;;5.65;2.88;;;15.70;99.90;;;;;;4934446;28;20031;-69
2023/09/26 04:15:38;;;;;;;3.20;2.30;;;15.70;99.90;;;;;;4931582;28;20481;-69
2023/09/26 04:18:07;;;;;;;3.92;2.50;;;15.60;99.90;;;;;;4935645;28;20047;-70
2023/09/26 04:20:36;;;;;;;3.58;2.17;;;15.60;99.90;;;;;;4917828;28;20148;-69
2023/09/26 04:23:02;;;;;;;5.25;2.10;;;15.60;99.90;;;;;;4935310;28;20051;-69
2023/09/26 04:25:33;;;;;;;7.07;3.00;;;15.50;99.90;;;;;;4934896;28;20031;-69
2023/09/26 04:27:59;;;;;;;8.23;3.10;;;15.50;99.90;;;;;;4930445;28;20052;-69
2023/09/26 04:30:25;;;;;;;3.85;2.08;;;15.50;99.90;;;;;;4935129;28;20039;-71
2023/09/26 04:32:50;;;;;;;4.68;2.63;;;15.50;99.90;;;;;;4934892;28;20139;-70
2023/09/26 04:35:16;;;;;;;5.45;2.22;;;15.50;99.90;;;;;;4934185;28;20032;-70
2023/09/26 04:37:42;;;;;;;6.35;3.05;;;15.50;99.90;;;;;;4934826;28;20039;-71
2023/09/26 04:40:11;;;;;;;5.78;2.70;;;15.50;99.90;;;;;;4937081;28;20037;-71
2023/09/26 04:42:43;;;;;;;4.38;2.30;;;15.50;99.90;;;;;;4932597;28;20051;-69
2023/09/26 04:45:09;;;;;;;3.20;2.25;;;15.50;99.90;;;;;;4933192;28;20101;-69
2023/09/26 04:47:37;;;;;;;3.75;2.55;;;15.50;99.90;;;;;;4933953;28;20130;-69
2023/09/26 04:50:04;;;;;;;4.63;2.00;;;15.50;99.90;;;;;;4935219;28;20039;-69
2023/09/26 04:52:30;;;;;;;7.65;2.40;;;15.40;99.90;;;;;;4933533;28;20192;-69
2023/09/26 04:54:56;;;;;;;5.97;3.30;;;15.40;99.90;;;;;;4938276;28;20035;-69
2023/09/26 04:57:21;;;;;;;6.75;3.15;;;15.40;99.90;;;;;;4940756;28;20043;-71
2023/09/26 04:59:47;;;;;;;9.98;3.47;;;15.40;99.90;;;;;;4933920;28;20062;-69
2023/09/26 05:02:13;;;;;;;3.38;3.08;;;15.50;99.90;;;;;;4935720;28;20114;-69
2023/09/26 05:04:41;;;;;;;6.15;3.03;;;15.60;99.90;;;;;;4938943;28;20086;-69
2023/09/26 05:07:09;;;;;;;7.40;2.90;;;15.60;99.90;;;;;;4937722;28;20048;-69
2023/09/26 05:09:35;;;;;;;6.75;2.15;;;15.60;99.90;;;;;;4934113;28;20039;-69
2023/09/26 05:12:01;;;;;;;5.75;2.38;;;15.60;99.90;;;;;;4929901;28;20074;-69
2023/09/26 05:14:27;;;;;;;9.77;3.85;;;15.50;99.90;;;;;;4928793;28;20533;-69
2023/09/26 05:16:52;;;;;;;4.10;2.75;;;15.50;99.90;;;;;;4927662;28;20044;-69
2023/09/26 05:19:18;;;;;;;6.63;3.33;;;15.60;99.90;;;;;;4927173;28;20103;-70
2023/09/26 05:21:44;;;;;;;6.05;3.60;;;15.70;99.90;;;;;;4931150;28;20055;-69
2023/09/26 05:24:09;;;;;;;7.80;3.53;;;15.70;99.90;;;;;;4929212;28;20074;-69
2023/09/26 05:26:35;;;;;;;7.35;4.00;;;15.80;99.90;;;;;;4931211;28;20122;-68
2023/09/26 05:29:01;;;;;;;6.72;3.33;;;16.00;99.90;;;;;;4929235;28;20528;-69
2023/09/26 05:31:31;;;;;;;7.00;4.28;;;16.10;99.90;;;;;;4930037;28;20139;-69
2023/09/26 05:33:57;;;;;;;4.55;3.42;;;16.20;99.90;;;;;;4931618;28;20088;-69
2023/09/26 05:36:23;;;;;;;7.15;3.45;;;16.30;99.90;;;;;;4917806;28;20492;-69
2023/09/26 05:38:49;;;;;;;4.97;2.88;;;16.40;99.90;;;;;;4923595;28;20049;-69
2023/09/26 05:41:14;;;;;;;14.10;3.97;;;16.50;99.90;;;;;;4927487;28;20448;-69
2023/09/26 05:43:40;;;;;;;9.35;3.88;;;16.60;99.90;;;;;;4925325;28;20028;-69
2023/09/26 05:46:06;;;;;;;13.40;5.28;;;16.70;99.90;;;;;;4937073;28;22165;-69
2023/09/26 05:48:31;;;;;;;8.23;3.90;;;16.90;99.90;;;;;;4938317;28;20113;-69
2023/09/26 05:50:59;;;;;;;7.93;4.35;;;17.10;99.90;;;;;;4930390;28;20055;-69
2023/09/26 05:53:25;;;;;;;5.90;3.78;;;17.30;99.90;;;;;;4938084;28;20122;-69
2023/09/26 05:55:53;;;;;;;6.78;4.30;;;17.50;99.90;;;;;;4938702;28;20638;-70
2023/09/26 05:58:19;;;;;;;6.85;4.22;;;17.70;99.90;;;;;;4937248;28;20098;-70
2023/09/26 06:00:48;;;;;;;8.48;4.68;;;17.80;99.90;;;;;;4938467;28;20034;-69
2023/09/26 06:03:14;;;;;;;6.68;4.80;;;18.00;99.90;;;;;;4936096;28;20044;-69
2023/09/26 06:05:40;;;;;;;10.25;5.50;;;18.20;99.90;;;;;;4934637;28;20392;-70
2023/09/26 06:08:06;;;;;;;8.73;4.80;;;18.40;99.90;;;;;;4936841;28;20039;-69
2023/09/26 06:10:32;;;;;;;7.38;4.78;;;18.50;99.90;;;;;;4938996;28;20058;-69
2023/09/26 06:12:57;;;;;;;7.43;4.70;;;18.60;99.90;;;;;;4936263;28;20051;-70
2023/09/26 06:15:23;;;;;;;6.45;4.38;;;18.80;99.90;;;;;;4936871;28;20067;-70
2023/09/26 06:17:49;;;;;;;10.18;4.85;;;18.90;99.90;;;;;;4937599;28;20106;-70
2023/09/26 06:20:14;;;;;;;7.38;4.63;;;19.00;99.90;;;;;;4937220;28;20122;-68
2023/09/26 06:22:40;;;;;;;10.60;4.28;;;19.10;99.90;;;;;;4934328;28;20672;-69
2023/09/26 06:25:06;;;;;;;9.35;4.43;;;19.10;99.90;;;;;;4935462;28;20051;-68
2023/09/26 06:27:35;;;;;;;8.10;4.22;;;19.30;99.90;;;;;;4935709;28;20074;-69
2023/09/26 06:30:00;;;;;;;6.57;4.28;;;19.30;99.90;;;;;;4935599;28;20046;-68
2023/09/26 06:32:26;;;;;;;5.50;4.57;;;19.40;99.90;;;;;;4932380;28;20061;-69
2023/09/26 06:34:55;;;;;;;10.15;4.13;;;19.50;99.90;;;;;;4933956;28;20452;-69
2023/09/26 06:37:21;;;;;;;5.38;4.72;;;19.50;99.90;;;;;;4937894;28;20130;-69
2023/09/26 06:39:47;;;;;;;7.95;4.57;;;19.60;99.90;;;;;;4935433;28;20047;-68
2023/09/26 06:42:12;;;;;;;6.57;4.30;;;19.60;99.90;;;;;;4937025;28;20043;-69
2023/09/26 06:44:38;;;;;;;8.40;4.55;;;19.70;99.90;;;;;;4931431;28;20599;-69
2023/09/26 06:47:04;;;;;;;5.93;4.35;;;19.70;99.90;;;;;;4938146;28;20051;-69
2023/09/26 06:49:29;;;;;;;9.25;4.47;;;19.70;99.90;;;;;;4937029;28;20034;-69
2023/09/26 06:51:55;;;;;;;7.32;4.90;;;19.70;99.90;;;;;;4938004;28;20035;-69
2023/09/26 06:54:20;;;;;;;7.15;4.63;;;19.90;99.90;;;;;;4934847;28;20043;-69
2023/09/26 06:56:46;;;;;;;6.35;3.75;;;20.00;99.90;;;;;;4934467;28;20127;-69
2023/09/26 06:59:12;;;;;;;8.80;4.28;;;20.10;99.90;;;;;;4935264;28;20023;-69
2023/09/26 07:01:38;;;;;;;7.93;4.63;;;20.10;99.90;;;;;;4934251;28;20054;-69
2023/09/26 07:04:04;;;;;;;6.40;4.32;;;20.10;99.90;;;;;;4932830;28;20027;-69
2023/09/26 07:06:30;;;;;;;7.32;4.40;;;20.10;99.90;;;;;;4935950;28;20416;-69
2023/09/26 07:08:57;;;;;;;5.50;3.67;;;20.20;99.90;;;;;;4938450;28;20129;-69
2023/09/26 07:11:23;;;;;;;8.07;4.15;;;20.30;99.90;;;;;;4938121;28;20122;-69
2023/09/26 07:13:49;;;;;;;6.60;3.97;;;20.40;99.90;;;;;;4918338;28;20098;-69
2023/09/26 07:16:14;;;;;;;7.47;4.18;;;20.50;99.90;;;;;;4932340;28;20050;-69
2023/09/26 07:18:40;;;;;;;4.53;3.83;;;20.70;99.90;;;;;;4936418;28;20036;-69
2023/09/26 07:21:07;;;;;;;7.70;4.20;;;20.70;99.90;;;;;;4931730;28;20055;-69
2023/09/26 07:23:35;;;;;;;6.50;3.83;;;20.80;99.90;;;;;;4932651;28;20821;-69
2023/09/26 07:26:13;;;;;;;8.30;4.13;;;20.90;99.90;;;;;;4933864;28;20208;-70
2023/09/26 07:28:43;;;;;;;5.63;4.30;;;20.90;99.90;;;;;;4930444;28;21686;-70
2023/09/26 07:31:11;;;;;;;5.65;3.97;;;21.10;99.90;;;;;;4918187;28;20043;-70
2023/09/26 07:33:38;;;;;;;5.70;4.00;;;21.20;99.90;;;;;;4930744;28;20105;-71
2023/09/26 07:36:04;;;;;;;7.75;4.05;;;21.10;99.90;;;;;;4910328;28;20039;-70
2023/09/26 07:38:36;;;;;;;9.82;4.13;;;21.20;99.90;;;;;;5031077;28;20494;-70
2023/09/26 07:41:03;;;;;;;5.00;3.80;;;21.40;99.90;;;;;;5026398;28;20132;-70
2023/09/26 07:43:29;;;;;;;7.93;4.28;;;21.50;99.90;;;;;;5027444;28;20588;-69
2023/09/26 07:46:06;;;;;;;7.90;3.90;;;21.60;99.90;;;;;;5023480;28;20029;-69
2023/09/26 07:48:34;;;;;;;7.25;4.50;;;21.70;99.90;;;;;;5019362;28;20025;-69
2023/09/26 07:51:00;;;;;;;9.20;4.30;;;21.80;99.90;;;;;;5025138;28;20040;-69
2023/09/26 07:53:26;;;;;;;5.78;3.80;;;21.80;99.90;;;;;;5025518;28;20129;-69
2023/09/26 07:55:53;;;;;;;6.65;4.00;;;21.70;99.90;;;;;;5029937;28;20086;-70
2023/09/26 07:58:19;;;;;;;6.72;3.95;;;21.80;99.90;;;;;;5024668;28;20774;-70
2023/09/26 08:00:45;;;;;;;9.10;4.13;;;21.90;99.90;;;;;;5028844;28;20398;-70
2023/09/26 08:03:10;;;;;;;7.45;4.57;;;22.10;99.90;;;;;;5023226;28;20556;-70
2023/09/26 08:05:36;;;;;;;6.63;4.20;;;22.20;99.90;;;;;;5030263;28;20470;-70
2023/09/26 08:08:05;;;;;;;5.15;4.30;;;22.10;99.90;;;;;;5029468;28;20585;-70
2023/09/26 08:10:31;;;;;;;5.25;3.67;;;22.20;99.90;;;;;;5033777;28;20044;-70
2023/09/26 08:12:58;;;;;;;5.18;3.90;;;22.20;99.90;;;;;;5027475;28;20745;-70
2023/09/26 08:15:25;;;;;;;10.15;4.63;;;22.40;99.90;;;;;;5028397;28;20113;-69
2023/09/26 08:17:50;;;;;;;5.88;4.22;;;22.50;99.90;;;;;;5026205;28;20473;-70
2023/09/26 08:20:16;;;;;;;6.55;4.78;;;22.60;99.90;;;;;;5028289;28;20048;-67
2023/09/26 08:22:43;;;;;;;8.52;4.38;;;22.50;99.90;;;;;;5028090;28;20038;-68
2023/09/26 08:25:09;;;;;;;6.13;4.10;;;22.50;99.90;;;;;;5027036;28;20034;-67
2023/09/26 08:27:35;;;;;;;8.02;4.40;;;22.40;99.90;;;;;;5020671;28;20033;-73
2023/09/26 08:30:01;;;;;;;7.70;4.30;;;22.50;99.90;;;;;;5026995;28;20497;-69
2023/09/26 08:32:26;;;;;;;7.53;4.43;;;22.50;99.90;;;;;;5025272;28;20542;-68
2023/09/26 08:34:52;;;;;;;8.70;3.95;;;22.60;99.90;;;;;;5030079;28;20029;-68
2023/09/26 08:37:18;;;;;;;7.68;4.28;;;22.70;99.90;;;;;;5021810;28;20105;-68
2023/09/26 08:39:43;;;;;;;6.38;4.53;;;22.80;99.90;;;;;;5023691;28;20021;-68
2023/09/26 08:42:17;;;;;;;5.78;4.72;;;22.80;99.90;;;;;;5024608;28;20120;-69
2023/09/26 08:44:43;;;;;;;7.25;4.05;;;22.80;99.90;;;;;;5021683;28;20111;-71
2023/09/26 08:47:09;;;;;;;6.65;4.03;;;23.00;99.90;;;;;;5014075;28;20372;-68
2023/09/26 08:49:38;;;;;;;5.10;3.65;;;23.20;99.90;;;;;;5004754;28;20632;-69
2023/09/26 08:52:04;;;;;;;5.13;3.80;;;23.20;99.90;;;;;;5016495;28;20115;-68
2023/09/26 08:54:30;;;;;;;6.88;3.90;;;23.20;99.90;;;;;;5014246;28;20125;-68
2023/09/26 08:56:57;;;;;;;4.47;3.97;;;23.20;99.90;;;;;;5010403;28;20053;-68
2023/09/26 08:59:23;;;;;;;4.63;3.60;;;23.20;99.90;;;;;;5009997;28;20052;-70
2023/09/26 09:01:50;;;;;;;5.82;4.13;;;23.20;99.90;;;;;;5014895;28;20351;-68
2023/09/26 09:04:18;;;;;;;4.13;3.72;;;23.20;99.90;;;;;;5011050;28;20026;-69
2023/09/26 09:06:44;;;;;;;5.95;4.18;;;23.20;99.90;;;;;;4996415;28;21615;-68
2023/09/26 09:09:12;;;;;;;5.40;3.90;;;23.10;99.90;;;;;;5002846;28;20064;-69
2023/09/26 09:11:38;;;;;;;5.95;4.18;;;23.10;99.90;;;;;;5003379;28;20022;-68
2023/09/26 09:14:06;;;;;;;8.45;4.32;;;23.20;99.90;;;;;;4999596;28;20793;-68
2023/09/26 09:16:32;;;;;;;7.57;3.85;;;23.30;99.90;;;;;;5000309;28;20044;-69
2023/09/26 09:18:58;;;;;;;8.70;4.50;;;23.30;99.90;;;;;;5003986;28;20033;-69
2023/09/26 09:21:30;;;;;;;4.47;3.70;;;23.40;99.90;;;;;;5005928;28;20033;-69
2023/09/26 09:24:06;;;;;;;7.65;4.45;;;23.60;99.90;;;;;;5009178;28;20066;-69
2023/09/26 09:26:35;;;;;;;5.70;3.90;;;23.70;99.90;;;;;;5004964;28;20121;-68
2023/09/26 09:29:22;;;;;;;7.53;4.40;;;23.90;99.90;;;;;;5006395;28;20466;-69
2023/09/26 09:31:48;;;;;;;5.90;3.80;;;23.90;99.90;;;;;;5012483;28;20125;-68
2023/09/26 09:34:19;;;;;;;6.07;3.80;;;24.00;99.90;;;;;;5011733;28;20033;-68
2023/09/26 09:36:45;;;;;;;7.47;3.80;;;24.10;99.90;;;;;;5009778;28;20069;-69
2023/09/26 09:39:10;;;;;;;7.18;3.97;;;24.20;99.90;;;;;;5009394;28;20774;-69
2023/09/26 09:41:40;;;;;;;10.50;4.07;;;24.20;99.90;;;;;;5011709;28;20037;-69
2023/09/26 09:44:06;;;;;;;9.25;4.13;;;24.20;99.90;;;;;;5015660;28;20037;-69
2023/09/26 09:46:35;;;;;;;5.75;4.28;;;24.20;99.90;;;;;;5014212;28;20052;-69
2023/09/26 09:49:03;;;;;;;5.22;3.92;;;24.30;99.90;;;;;;5014596;28;20064;-70
2023/09/26 09:51:30;;;;;;;6.57;3.80;;;24.50;99.90;;;;;;5009697;28;20413;-70
2023/09/26 09:54:00;;;;;;;5.30;3.80;;;24.60;99.90;;;;;;5007717;28;20022;-69
2023/09/26 09:56:33;;;;;;;6.90;3.67;;;24.70;99.90;;;;;;5008749;28;20128;-69
2023/09/26 09:59:05;;;;;;;3.90;3.60;;;24.70;99.90;;;;;;5014427;28;20044;-69
2023/09/26 10:01:33;;;;;;;4.63;3.78;;;24.70;99.90;;;;;;5008539;28;20048;-69
2023/09/26 10:03:59;;;;;;;6.03;3.50;;;24.70;99.90;;;;;;5009640;28;20048;-69
2023/09/26 10:06:25;;;;;;;4.70;3.50;;;24.70;99.90;;;;;;5012238;28;20116;-70
2023/09/26 10:08:54;;;;;;;8.18;4.45;;;24.90;99.90;;;;;;5006936;28;20044;-70
2023/09/26 10:11:22;;;;;;;6.60;3.67;;;24.80;99.90;;;;;;5004022;28;20040;-69
2023/09/26 10:13:48;;;;;;;5.68;3.63;;;24.80;99.90;;;;;;5003956;28;20072;-70
2023/09/26 10:16:17;;;;;;;6.15;3.30;;;24.90;99.90;;;;;;4999739;28;20068;-70
2023/09/26 10:18:47;;;;;;;7.35;3.80;;;25.00;99.90;;;;;;4998611;28;20082;-70
2023/09/26 10:21:19;;;;;;;5.90;3.65;;;25.00;99.90;;;;;;5004509;28;20018;-69
2023/09/26 10:24:08;;;;;;;4.07;3.30;;;25.00;99.90;;;;;;5014911;28;20144;-69
2023/09/26 10:26:37;;;;;;;5.65;3.67;;;25.10;99.90;;;;;;5024804;28;20078;-69
2023/09/26 10:29:10;;;;;;;7.78;3.88;;;25.20;99.90;;;;;;5029276;28;20478;-69
2023/09/26 10:31:41;;;;;;;12.65;3.80;;;25.20;99.90;;;;;;5020930;28;20045;-70
2023/09/26 10:34:07;;;;;;;3.58;2.90;;;25.30;99.90;;;;;;5027274;28;20051;-69
2023/09/26 10:36:37;;;;;;;7.93;3.97;;;25.40;99.90;;;;;;5027754;28;20073;-69
2023/09/26 10:39:05;;;;;;;7.35;3.30;;;25.50;99.90;;;;;;5045705;28;20553;-69
2023/09/26 10:41:32;;;;;;;7.50;3.60;;;25.50;99.90;;;;;;5022155;28;20119;-70
2023/09/26 10:43:58;;;;;;;6.38;3.65;;;25.70;99.90;;;;;;5022355;28;20083;-70
2023/09/26 10:46:23;;;;;;;5.97;3.45;;;25.90;99.90;;;;;;5020273;28;20148;-73
2023/09/26 10:48:49;;;;;;;5.43;3.50;;;25.90;99.90;;;;;;5005488;28;20037;-70
2023/09/26 10:51:17;;;;;;;3.72;3.03;;;25.90;99.90;;;;;;5024785;28;20037;-70
2023/09/26 10:53:44;;;;;;;5.13;3.50;;;26.00;99.90;;;;;;5027264;28;20039;-70
2023/09/26 10:56:10;;;;;;;12.25;3.65;;;26.00;99.90;;;;;;5026467;28;20056;-69
2023/09/26 10:58:36;;;;;;;5.38;3.40;;;26.00;99.90;;;;;;5023057;28;20045;-68
2023/09/26 11:01:02;;;;;;;7.13;3.60;;;26.10;99.90;;;;;;5023167;28;20059;-69
2023/09/26 11:03:31;;;;;;;4.43;3.83;;;26.20;99.90;;;;;;5024251;28;20144;-69
2023/09/26 11:05:57;;;;;;;7.53;3.03;;;26.40;99.90;;;;;;5026428;28;20028;-68
2023/09/26 11:08:24;;;;;;;4.55;2.85;;;26.50;99.90;;;;;;5028334;28;20044;-68
2023/09/26 11:10:49;;;;;;;4.55;3.28;;;26.40;99.90;;;;;;5023442;28;20425;-68
2023/09/26 11:13:16;;;;;;;3.35;3.03;;;26.60;99.90;;;;;;5029623;28;20071;-69
2023/09/26 11:15:45;;;;;;;9.23;3.25;;;26.60;99.90;;;;;;5030350;28;20025;-70
2023/09/26 11:18:15;;;;;;;9.38;3.78;;;26.60;99.90;;;;;;5024581;28;20569;-70
2023/09/26 11:20:41;;;;;;;6.22;3.38;;;26.70;99.90;;;;;;5027273;28;20034;-70
2023/09/26 11:23:07;;;;;;;5.57;3.65;;;26.70;99.90;;;;;;5027965;28;20732;-69
2023/09/26 11:25:33;;;;;;;5.20;3.47;;;26.60;99.90;;;;;;5024434;28;20031;-71
2023/09/26 11:27:59;;;;;;;5.15;3.50;;;26.60;99.90;;;;;;5027530;28;20029;-71
2023/09/26 11:30:25;;;;;;;6.07;3.25;;;26.60;99.90;;;;;;5026414;28;20626;-70
2023/09/26 11:32:54;;;;;;;4.82;3.40;;;26.60;99.90;;;;;;5029442;28;20837;-70
2023/09/26 11:35:21;;;;;;;5.38;3.42;;;26.70;99.90;;;;;;5029740;28;20138;-70
2023/09/26 11:37:51;;;;;;;4.65;3.17;;;26.80;99.90;;;;;;5024418;28;20102;-70
2023/09/26 11:40:24;;;;;;;8.15;3.40;;;26.90;99.90;;;;;;5023823;28;20044;-70
2023/09/26 11:42:53;;;;;;;7.75;4.03;;;26.90;99.90;;;;;;5021158;28;20029;-69
2023/09/26 11:45:27;;;;;;;8.32;3.70;;;26.90;99.90;;;;;;5022925;28;20571;-70
2023/09/26 11:47:54;;;;;;;5.93;2.88;;;26.90;99.90;;;;;;5027155;28;20057;-70
2023/09/26 11:50:20;;;;;;;11.15;3.58;;;27.00;99.90;;;;;;5024803;28;20041;-68
2023/09/26 11:52:47;;;;;;;5.18;3.13;;;27.00;99.90;;;;;;5027745;28;20039;-69
2023/09/26 11:55:19;;;;;;;8.05;3.75;;;26.90;99.90;;;;;;5024600;28;20029;-69
2023/09/26 11:57:45;;;;;;;5.63;3.20;;;26.80;99.90;;;;;;5024949;28;20114;-68
2023/09/26 12:00:15;;;;;;;4.43;3.20;;;26.70;99.90;;;;;;5026989;28;20112;-69
2023/09/26 12:02:43;;;;;;;6.13;3.08;;;26.70;99.90;;;;;;5028533;28;20037;-68
2023/09/26 12:05:11;;;;;;;6.75;3.20;;;26.70;99.90;;;;;;5030002;28;20029;-69
2023/09/26 12:07:41;;;;;;;4.63;2.85;;;26.80;99.90;;;;;;5031740;28;20155;-69
2023/09/26 12:10:08;;;;;;;6.85;3.28;;;26.80;99.90;;;;;;5027226;28;20025;-69
2023/09/26 12:12:33;;;;;;;7.50;3.13;;;26.70;99.90;;;;;;5027121;28;20024;-69
2023/09/26 12:15:16;;;;;;;6.35;3.60;;;26.60;99.90;;;;;;5030645;28;20018;-69
2023/09/26 12:17:42;;;;;;;7.10;3.78;;;26.60;99.90;;;;;;5027607;28;20620;-69
2023/09/26 12:20:09;;;;;;;4.60;2.90;;;26.60;99.90;;;;;;5029966;28;20033;-69
2023/09/26 12:22:35;;;;;;;6.80;3.60;;;26.70;99.90;;;;;;5029203;28;20027;-69
2023/09/26 12:25:01;;;;;;;5.13;3.05;;;26.60;99.90;;;;;;5027547;28;20032;-69
2023/09/26 12:27:26;;;;;;;7.88;3.17;;;26.60;99.90;;;;;;5031574;28;20033;-69
2023/09/26 12:29:52;;;;;;;8.18;3.50;;;26.60;99.90;;;;;;5032301;28;20060;-69
2023/09/26 12:32:18;;;;;;;3.22;2.92;;;26.70;99.90;;;;;;5034039;28;20033;-69
2023/09/26 12:34:43;;;;;;;3.90;3.20;;;26.90;99.90;;;;;;5026392;28;20490;-69
2023/09/26 12:37:09;;;;;;;4.30;3.13;;;26.90;99.90;;;;;;5029430;28;20097;-69
2023/09/26 12:39:35;;;;;;;7.03;3.55;;;27.10;99.90;;;;;;5030107;28;20029;-69
2023/09/26 12:42:00;;;;;;;3.63;2.90;;;27.10;99.90;;;;;;5025432;28;20109;-69
2023/09/26 12:44:26;;;;;;;7.03;2.80;;;27.10;99.90;;;;;;5027739;28;20037;-69
2023/09/26 12:46:52;;;;;;;4.50;3.25;;;27.10;99.90;;;;;;5029864;28;20047;-69